createdAt,value
2023-04-20T00:00:54.463Z,6.50
2023-04-20T00:05:56.467Z,12.83
2023-04-20T00:10:58.571Z,5.53
2023-04-20T00:16:00.545Z,6.93
2023-04-20T00:21:03.118Z,4.80
2023-04-20T00:26:05.802Z,3.33
2023-04-20T00:31:07.666Z,5.57
2023-04-20T00:36:09.631Z,8.20
2023-04-20T00:41:11.650Z,7.40
2023-04-20T00:46:13.816Z,5.53
2023-04-20T00:51:16.192Z,5.20
2023-04-20T00:56:19.392Z,9.60
2023-04-20T01:01:21.332Z,7.57
2023-04-20T01:06:23.440Z,6.43
2023-04-20T01:11:28.810Z,6.00
2023-04-20T01:16:31.730Z,5.03
2023-04-20T01:21:34.430Z,5.83
2023-04-20T01:26:36.241Z,4.17
2023-04-20T01:31:38.243Z,5.87
2023-04-20T01:36:40.319Z,6.70
2023-04-20T01:41:42.519Z,4.70
2023-04-20T01:46:44.294Z,3.30
2023-04-20T01:51:46.191Z,7.90
2023-04-20T01:56:48.604Z,5.40
2023-04-20T02:01:51.067Z,4.03
2023-04-20T02:06:53.230Z,6.87
2023-04-20T02:11:55.031Z,6.07
2023-04-20T02:16:57.084Z,5.87
2023-04-20T02:21:59.386Z,6.43
2023-04-20T02:27:01.667Z,6.70
2023-04-20T02:32:04.040Z,8.50
2023-04-20T02:37:05.963Z,6.37
2023-04-20T02:42:10.100Z,4.77
2023-04-20T02:47:12.500Z,4.00
2023-04-20T02:52:14.716Z,9.00
2023-04-20T02:57:17.175Z,4.80
2023-04-20T03:02:19.473Z,4.47
2023-04-20T03:07:22.503Z,4.53
2023-04-20T03:12:24.493Z,6.13
2023-04-20T03:17:43.900Z,4.00
2023-04-20T03:22:46.983Z,5.93
2023-04-20T03:27:49.620Z,4.27
2023-04-20T03:32:51.794Z,5.40
2023-04-20T03:37:54.097Z,3.60
2023-04-20T03:42:56.828Z,6.10
2023-04-20T03:47:58.954Z,5.90
2023-04-20T03:53:02.035Z,4.10
2023-04-20T03:58:07.886Z,5.20
2023-04-20T04:03:20.745Z,9.50
2023-04-20T04:08:22.988Z,6.27
2023-04-20T04:13:25.103Z,2.93
2023-04-20T04:18:32.299Z,3.13
2023-04-20T04:23:37.760Z,3.83
2023-04-20T04:28:49.621Z,4.87
2023-04-20T04:33:53.462Z,6.53
2023-04-20T04:39:18.888Z,6.83
2023-04-20T04:44:31.430Z,4.87
2023-04-20T04:49:35.877Z,5.57
2023-04-20T04:54:37.866Z,4.20
2023-04-20T04:59:39.865Z,2.97
2023-04-20T05:04:42.119Z,6.43
2023-04-20T05:09:44.168Z,6.93
2023-04-20T05:14:46.160Z,5.23
2023-04-20T05:19:48.127Z,6.53
2023-04-20T05:24:50.409Z,5.10
2023-04-20T05:29:52.382Z,5.67
2023-04-20T05:34:54.323Z,7.37
2023-04-20T05:39:56.178Z,6.50
2023-04-20T05:44:58.099Z,7.83
2023-04-20T05:50:00.232Z,4.27
2023-04-20T05:55:02.095Z,7.13
2023-04-20T06:00:04.795Z,7.70
2023-04-20T06:05:14.980Z,6.37
2023-04-20T06:10:17.011Z,3.80
2023-04-20T06:15:19.155Z,4.33
2023-04-20T06:20:21.170Z,3.70
2023-04-20T06:25:23.455Z,5.20
2023-04-20T06:30:25.323Z,5.07
2023-04-20T06:35:27.118Z,6.23
2023-04-20T06:40:29.931Z,9.07
2023-04-20T06:45:33.982Z,7.90
2023-04-20T06:50:36.259Z,8.80
2023-04-20T06:55:38.056Z,6.73
2023-04-20T07:00:39.917Z,6.90
2023-04-20T07:05:41.847Z,6.53
2023-04-20T07:10:44.107Z,11.40
2023-04-20T07:15:46.200Z,11.63
2023-04-20T07:20:48.440Z,9.63
2023-04-20T07:25:50.974Z,7.13
2023-04-20T07:30:53.038Z,7.37
2023-04-20T07:35:54.855Z,8.53
2023-04-20T07:40:56.793Z,9.40
2023-04-20T07:45:58.771Z,9.40
2023-04-20T07:51:01.184Z,8.20
2023-04-20T07:56:03.401Z,10.30
2023-04-20T08:01:05.334Z,8.30
2023-04-20T08:06:07.450Z,9.93
2023-04-20T08:11:09.330Z,9.33
2023-04-20T08:16:11.310Z,5.47
2023-04-20T08:21:13.636Z,7.10
2023-04-20T08:26:17.166Z,7.30
2023-04-20T08:31:19.227Z,6.23
2023-04-20T08:36:21.304Z,7.30
2023-04-20T08:41:24.367Z,10.00
2023-04-20T08:46:26.871Z,6.70
2023-04-20T08:51:29.311Z,7.57
2023-04-20T08:56:39.597Z,7.90
2023-04-20T09:01:42.263Z,9.97
2023-04-20T09:06:46.240Z,7.03
2023-04-20T09:11:59.350Z,7.17
2023-04-20T09:17:02.045Z,6.57
2023-04-20T09:22:05.475Z,8.00
2023-04-20T09:27:22.652Z,10.03
2023-04-20T09:32:27.023Z,6.60
2023-04-20T09:37:29.291Z,14.03
2023-04-20T09:42:32.787Z,14.60
2023-04-20T09:47:36.906Z,7.63
2023-04-20T09:52:39.776Z,8.73
2023-04-20T09:57:42.666Z,8.63
2023-04-20T10:02:47.325Z,7.20
2023-04-20T10:07:59.969Z,7.93
2023-04-20T10:13:02.309Z,10.53
2023-04-20T10:18:23.469Z,4.57
2023-04-20T10:23:25.938Z,10.80
2023-04-20T10:28:41.662Z,10.53
2023-04-20T10:34:05.748Z,9.93
2023-04-20T10:39:19.869Z,9.30
2023-04-20T10:44:22.222Z,5.90
2023-04-20T10:49:29.497Z,9.03
2023-04-20T10:54:38.142Z,10.67
2023-04-20T10:59:42.161Z,5.97
2023-04-20T11:04:44.405Z,14.67
2023-04-20T11:09:54.117Z,10.97
2023-04-20T11:15:03.011Z,11.53
2023-04-20T11:20:13.248Z,7.10
2023-04-20T11:25:15.211Z,4.67
2023-04-20T11:30:18.151Z,5.40
2023-04-20T11:35:20.852Z,6.00
2023-04-20T11:40:23.240Z,8.63
2023-04-20T11:45:25.116Z,8.57
2023-04-20T11:50:27.567Z,5.23
2023-04-20T11:55:29.762Z,8.00
2023-04-20T12:00:32.233Z,5.83
2023-04-20T12:05:34.761Z,7.70
2023-04-20T12:10:37.013Z,5.17
2023-04-20T12:15:39.061Z,6.73
2023-04-20T12:20:41.277Z,6.27
2023-04-20T12:25:43.445Z,6.80
2023-04-20T12:30:45.733Z,6.53
2023-04-20T12:35:47.901Z,8.23
2023-04-20T12:40:49.933Z,5.90
2023-04-20T12:45:52.296Z,6.07
2023-04-20T12:50:54.454Z,5.77
2023-04-20T12:56:01.083Z,6.00
2023-04-20T13:01:03.994Z,12.90
2023-04-20T13:06:06.663Z,7.83
2023-04-20T13:11:12.141Z,8.60
2023-04-20T13:16:14.481Z,8.57
2023-04-20T13:21:16.711Z,7.33
2023-04-20T13:26:18.771Z,6.83
2023-04-20T13:31:21.579Z,8.70
2023-04-20T13:36:24.490Z,9.27
2023-04-20T13:41:27.445Z,9.17
2023-04-20T13:46:30.971Z,10.97
2023-04-20T13:51:33.592Z,13.83
2023-04-20T13:56:36.999Z,9.57
2023-04-20T14:01:39.545Z,9.70
2023-04-20T14:06:41.969Z,9.03
2023-04-20T14:11:44.454Z,8.20
2023-04-20T14:16:48.416Z,7.00
2023-04-20T14:21:50.997Z,7.17
2023-04-20T14:26:53.044Z,8.97
2023-04-20T14:31:55.214Z,8.20
2023-04-20T14:36:57.407Z,7.87
2023-04-20T14:41:59.458Z,9.13
2023-04-20T14:47:03.014Z,6.53
2023-04-20T14:52:05.198Z,7.87
2023-04-20T14:57:07.221Z,6.93
2023-04-20T15:02:09.175Z,3.73
2023-04-20T15:07:11.527Z,3.77
2023-04-20T15:12:13.789Z,2.73
2023-04-20T15:17:16.039Z,2.23
2023-04-20T15:22:19.106Z,2.43
2023-04-20T15:27:21.111Z,2.67
2023-04-20T15:32:23.258Z,3.30
2023-04-20T15:37:25.506Z,3.67
2023-04-20T15:42:27.673Z,3.80
2023-04-20T15:47:29.743Z,3.67
2023-04-20T15:52:32.419Z,5.13
2023-04-20T15:57:34.321Z,3.80
2023-04-20T16:02:37.112Z,3.57
2023-04-20T16:07:39.116Z,3.17
2023-04-20T16:12:41.212Z,3.10
2023-04-20T16:17:44.414Z,3.47
2023-04-20T16:22:46.356Z,3.60
2023-04-20T16:27:50.565Z,3.47
2023-04-20T16:32:53.291Z,4.10
2023-04-20T16:37:56.045Z,5.20
2023-04-20T16:42:58.360Z,4.50
2023-04-20T16:48:00.756Z,4.87
2023-04-20T16:53:03.785Z,4.97
2023-04-20T16:58:05.707Z,4.83
2023-04-20T17:03:10.995Z,5.57
2023-04-20T17:08:13.036Z,4.87
2023-04-20T17:13:15.453Z,5.17
2023-04-20T17:18:17.388Z,5.97
2023-04-20T17:23:19.672Z,6.77
2023-04-20T17:28:21.663Z,7.47
2023-04-20T17:33:24.003Z,6.57
2023-04-20T17:38:25.907Z,6.33
2023-04-20T17:43:27.993Z,6.30
2023-04-20T17:48:30.168Z,6.73
2023-04-20T17:53:32.383Z,8.47
2023-04-20T17:58:34.515Z,5.70
2023-04-20T18:03:36.700Z,7.17
2023-04-20T18:08:38.687Z,8.07
2023-04-20T18:13:40.870Z,5.90
2023-04-20T18:18:42.905Z,6.50
2023-04-20T18:23:44.875Z,6.77
2023-04-20T18:28:47.186Z,7.90
2023-04-20T18:33:49.657Z,8.67
2023-04-20T18:38:52.057Z,6.17
2023-04-20T18:43:54.553Z,11.30
2023-04-20T18:48:56.702Z,6.37
2023-04-20T18:53:59.001Z,9.47
2023-04-20T18:59:01.668Z,6.27
2023-04-20T19:04:04.004Z,5.90
2023-04-20T19:09:08.028Z,8.50
2023-04-20T19:14:14.726Z,6.60
2023-04-20T19:19:16.820Z,7.13
2023-04-20T19:24:19.555Z,6.60
2023-04-20T19:29:21.921Z,8.50
2023-04-20T19:34:24.450Z,6.37
2023-04-20T19:39:28.961Z,8.87
2023-04-20T19:44:31.063Z,6.93
2023-04-20T19:49:33.204Z,10.63
2023-04-20T19:54:35.509Z,9.17
2023-04-20T19:59:39.049Z,8.60
2023-04-20T20:04:41.851Z,13.33
2023-04-20T20:09:44.936Z,8.67
2023-04-20T20:14:46.891Z,7.90
2023-04-20T20:19:49.889Z,8.90
2023-04-20T20:24:54.350Z,8.50
2023-04-20T20:29:56.538Z,8.90
2023-04-20T20:34:58.877Z,8.37
2023-04-20T20:40:07.789Z,8.50
2023-04-20T20:45:12.438Z,9.80
2023-04-20T20:50:16.157Z,10.93
2023-04-20T20:55:18.406Z,9.07
2023-04-20T21:00:20.587Z,13.17
2023-04-20T21:05:24.095Z,13.90
2023-04-20T21:10:27.054Z,14.47
2023-04-20T21:15:29.724Z,13.47
2023-04-20T21:20:31.844Z,13.37
2023-04-20T21:25:33.834Z,14.00
2023-04-20T21:30:36.044Z,15.57
2023-04-20T21:35:38.441Z,13.00
2023-04-20T21:40:40.399Z,14.70
2023-04-20T21:45:42.482Z,16.77
2023-04-20T21:50:44.748Z,15.60
2023-04-20T21:55:46.978Z,17.80
2023-04-20T22:00:50.758Z,17.17
2023-04-20T22:05:53.522Z,14.10
2023-04-20T22:10:55.841Z,16.30
2023-04-20T22:15:57.860Z,14.50
2023-04-20T22:20:59.961Z,15.17
2023-04-20T22:26:02.020Z,15.23
2023-04-20T22:31:04.173Z,14.33
2023-04-20T22:36:07.707Z,15.33
2023-04-20T22:41:09.959Z,15.13
2023-04-20T22:46:12.101Z,19.60
2023-04-20T22:51:17.253Z,14.60
2023-04-20T22:56:19.598Z,15.47
2023-04-20T23:01:21.782Z,14.13
2023-04-20T23:06:24.604Z,16.10
2023-04-20T23:11:29.137Z,15.93
2023-04-20T23:16:31.043Z,16.03
2023-04-20T23:21:33.384Z,16.70
2023-04-20T23:26:35.473Z,13.73
2023-04-20T23:31:37.652Z,14.97
2023-04-20T23:36:39.956Z,14.80
2023-04-20T23:41:41.820Z,15.13
2023-04-20T23:46:43.818Z,11.97
2023-04-20T23:51:45.756Z,16.83
2023-04-20T23:56:47.786Z,15.20
